| time (UTC) | temp C | wind direction | speed KPH | gust KPH | rain 1hr cm | rain 24hr cm | rain mn cm | humidity % | barometer mb |
| 20260507203051 | 21 | 234 | 8.0 | 20.9 | 0.00 | 0.00 | 0.00 | 55 | 1014.7 |
| 20260507201534 | 21 | 168 | 8.0 | 17.7 | 0.00 | 0.00 | 0.00 | 58 | 1014.8 |
| 20260507200035 | 20 | 200 | 8.0 | 17.7 | 0.00 | 0.00 | 0.00 | 58 | 1015.0 |
| 20260507194535 | 21 | 195 | 9.7 | 29.0 | 0.00 | 0.00 | 0.00 | 54 | 1015.0 |
| 20260507193030 | 20 | 225 | 8.0 | 17.7 | 0.00 | 0.00 | 0.00 | 50 | 1015.0 |
| 20260507191536 | 20 | 225 | 6.4 | 20.9 | 0.00 | 0.00 | 0.00 | 53 | 1015.1 |
| 20260507190032 | 21 | 213 | 8.0 | 14.5 | 0.00 | 0.00 | 0.00 | 59 | 1015.3 |
| 20260507184535 | 20 | 227 | 6.4 | 17.7 | 0.00 | 0.00 | 0.00 | 51 | 1015.3 |
| 20260507183035 | 20 | 188 | 11.3 | 20.9 | 0.00 | 0.00 | 0.00 | 54 | 1015.4 |
| 20260507181535 | 20 | 184 | 8.0 | 16.1 | 0.00 | 0.00 | 0.00 | 52 | 1015.4 |
| 20260507180039 | 19 | 175 | 4.8 | 16.1 | 0.00 | 0.00 | 0.00 | 53 | 1015.5 |
| 20260507174541 | 18 | 173 | 6.4 | 19.3 | 0.00 | 0.00 | 0.00 | 57 | 1015.4 |
| 20260507173053 | 18 | 173 | 9.7 | 17.7 | 0.00 | 0.00 | 0.00 | 60 | 1015.7 |
| 20260507171540 | 18 | 176 | 8.0 | 16.1 | 0.00 | 0.00 | 0.00 | 61 | 1015.8 |
| 20260507170038 | 17 | 204 | 4.8 | 11.3 | 0.00 | 0.00 | 0.00 | 64 | 1015.9 |
| 20260507164534 | 17 | 223 | 4.8 | 9.7 | 0.00 | 0.00 | 0.00 | 65 | 1016.0 |
| 20260507163039 | 16 | 225 | 6.4 | 12.9 | 0.00 | 0.00 | 0.00 | 66 | 1016.0 |
| 20260507161543 | 16 | 230 | 4.8 | 12.9 | 0.00 | 0.00 | 0.00 | 65 | 1016.0 |
| 20260507160038 | 16 | 255 | 1.6 | 9.7 | 0.00 | 0.00 | 0.00 | 69 | 1016.0 |
| 20260507154534 | 15 | 256 | 3.2 | 11.3 | 0.00 | 0.00 | 0.00 | 72 | 1015.7 |
| 20260507153033 | 15 | 280 | 1.6 | 6.4 | 0.00 | 0.00 | 0.00 | 74 | 1015.7 |
| 20260507151531 | 15 | 281 | 1.6 | 6.4 | 0.00 | 0.00 | 0.00 | 74 | 1015.6 |
| 20260507150040 | 14 | 0 | 0.0 | 3.2 | 0.00 | 0.00 | 0.00 | 76 | 1015.9 |
| 20260507144532 | 13 | 281 | 0.0 | 6.4 | 0.00 | 0.00 | 0.00 | 76 | 1015.6 |
| 20260507143043 | 13 | 0 | 0.0 | 4.8 | 0.00 | 0.00 | 0.00 | 77 | 1015.6 |
| 20260507141546 | 13 | 287 | 1.6 | 4.8 | 0.00 | 0.00 | 0.00 | 79 | 1015.3 |
| 20260507140035 | 12 | 0 | 0.0 | 4.8 | 0.00 | 0.00 | 0.00 | 80 | 1015.2 |
| 20260507134535 | 12 | 0 | 0.0 | 4.8 | 0.00 | 0.00 | 0.00 | 82 | 1015.2 |
| 20260507133104 | 11 | 0 | 0.0 | 3.2 | 0.00 | 0.00 | 0.00 | 83 | 1015.1 |
| 20260507131537 | 10 | 286 | 3.2 | 9.7 | 0.00 | 0.00 | 0.00 | 82 | 1015.0 |
| 20260507130036 | 11 | 287 | 1.6 | 4.8 | 0.00 | 0.00 | 0.00 | 80 | 1014.7 |
| 20260507124532 | 11 | 0 | 0.0 | 3.2 | 0.00 | 0.00 | 0.00 | 80 | 1014.5 |
| 20260507123038 | 11 | 0 | 0.0 | 3.2 | 0.00 | 0.00 | 0.00 | 79 | 1014.5 |
| 20260507121530 | 11 | 0 | 0.0 | 3.2 | 0.00 | 0.00 | 0.00 | 80 | 1014.6 |
| 20260507120037 | 11 | 286 | 1.6 | 3.2 | 0.00 | 0.00 | 0.00 | 80 | 1014.6 |
| 20260507114542 | 11 | 286 | 1.6 | 4.8 | 0.00 | 0.00 | 0.00 | 78 | 1014.6 |
| 20260507113036 | 10 | 0 | 0.0 | 11.3 | 0.00 | 0.00 | 0.00 | 76 | 1014.5 |
| 20260507111532 | 11 | 286 | 6.4 | 9.7 | 0.00 | 0.00 | 0.00 | 74 | 1014.4 |
| 20260507110042 | 12 | 288 | 6.4 | 12.9 | 0.00 | 0.00 | 0.00 | 67 | 1014.3 |
| 20260507104536 | 13 | 302 | 8.0 | 12.9 | 0.00 | 0.00 | 0.00 | 63 | 1014.3 |
| 20260507103043 | 13 | 309 | 6.4 | 14.5 | 0.00 | 0.00 | 0.00 | 63 | 1014.3 |
| 20260507101538 | 14 | 303 | 8.0 | 19.3 | 0.00 | 0.00 | 0.00 | 62 | 1014.3 |
| 20260507100037 | 14 | 298 | 6.4 | 16.1 | 0.00 | 0.00 | 0.00 | 61 | 1014.1 |
| 20260507094536 | 13 | 284 | 8.0 | 14.5 | 0.00 | 0.00 | 0.00 | 64 | 1014.2 |
| 20260507093032 | 13 | 257 | 0.0 | 6.4 | 0.00 | 0.00 | 0.00 | 64 | 1014.5 |
| 20260507091533 | 13 | 257 | 1.6 | 12.9 | 0.00 | 0.00 | 0.00 | 66 | 1014.0 |
| 20260507090035 | 14 | 254 | 6.4 | 17.7 | 0.00 | 0.00 | 0.00 | 62 | 1014.0 |
| 20260507084539 | 13 | 286 | 6.4 | 11.3 | 0.00 | 0.00 | 0.00 | 64 | 1013.9 |
| 20260507083033 | 15 | 306 | 3.2 | 16.1 | 0.00 | 0.00 | 0.00 | 60 | 1014.0 |
| 20260507081537 | 15 | 287 | 12.9 | 25.7 | 0.00 | 0.00 | 0.00 | 61 | 1013.8 |
| 20260507080035 | 14 | 259 | 11.3 | 16.1 | 0.00 | 0.00 | 0.00 | 63 | 1013.6 |
| 20260507074530 | 15 | 279 | 9.7 | 17.7 | 0.00 | 0.00 | 0.00 | 60 | 1013.8 |
| 20260507073031 | 15 | 294 | 11.3 | 17.7 | 0.00 | 0.00 | 0.00 | 59 | 1013.5 |
| 20260507071534 | 16 | 269 | 11.3 | 19.3 | 0.00 | 0.00 | 0.00 | 57 | 1013.5 |
| 20260507070042 | 16 | 270 | 8.0 | 14.5 | 0.00 | 0.00 | 0.00 | 57 | 1013.6 |
| 20260507064535 | 16 | 279 | 4.8 | 17.7 | 0.00 | 0.00 | 0.00 | 54 | 1013.6 |
| 20260507063036 | 17 | 250 | 14.5 | 25.7 | 0.00 | 0.00 | 0.00 | 54 | 1012.9 |
| 20260507061532 | 16 | 290 | 12.9 | 17.7 | 0.00 | 0.00 | 0.00 | 56 | 1012.9 |
| 20260507060032 | 17 | 306 | 11.3 | 19.3 | 0.00 | 0.00 | 0.00 | 54 | 1012.7 |
| 20260507054530 | 17 | 306 | 12.9 | 20.9 | 0.00 | 0.00 | 0.00 | 54 | 1012.8 |
| 20260507053032 | 18 | 290 | 17.7 | 30.6 | 0.00 | 0.00 | 0.00 | 50 | 1012.6 |
| 20260507051536 | 20 | 299 | 22.5 | 33.8 | 0.00 | 0.00 | 0.00 | 45 | 1012.4 |
| 20260507050033 | 19 | 281 | 17.7 | 24.1 | 0.00 | 0.00 | 0.00 | 47 | 1012.6 |
| 20260507044537 | 20 | 284 | 12.9 | 25.7 | 0.00 | 0.00 | 0.00 | 47 | 1012.5 |
| 20260507043031 | 20 | 293 | 16.1 | 25.7 | 0.00 | 0.00 | 0.00 | 46 | 1012.4 |
| 20260507041533 | 20 | 279 | 14.5 | 25.7 | 0.00 | 0.00 | 0.00 | 44 | 1012.4 |
| 20260507040042 | 20 | 290 | 17.7 | 27.4 | 0.00 | 0.00 | 0.00 | 44 | 1012.1 |
| 20260507034541 | 20 | 279 | 17.7 | 27.4 | 0.00 | 0.00 | 0.00 | 43 | 1012.0 |
| 20260507033043 | 20 | 280 | 20.9 | 30.6 | 0.00 | 0.00 | 0.00 | 45 | 1011.5 |
| 20260507031550 | 20 | 273 | 16.1 | 27.4 | 0.00 | 0.00 | 0.00 | 45 | 1011.4 |
| 20260507030033 | 21 | 285 | 16.1 | 24.1 | 0.00 | 0.00 | 0.00 | 45 | 1011.3 |
| 20260507024534 | 21 | 276 | 17.7 | 27.4 | 0.00 | 0.00 | 0.00 | 44 | 1011.5 |
| 20260507023035 | 21 | 294 | 14.5 | 24.1 | 0.00 | 0.00 | 0.00 | 42 | 1011.3 |
| 20260507021530 | 22 | 304 | 16.1 | 25.7 | 0.00 | 0.00 | 0.00 | 43 | 1011.2 |
| 20260507020030 | 23 | 306 | 19.3 | 27.4 | 0.00 | 0.00 | 0.00 | 39 | 1011.1 |
| 20260507014541 | 23 | 297 | 14.5 | 25.7 | 0.00 | 0.00 | 0.00 | 42 | 1011.1 |
| 20260507013039 | 24 | 304 | 16.1 | 27.4 | 0.00 | 0.00 | 0.00 | 40 | 1011.0 |
| 20260507011536 | 23 | 302 | 8.0 | 17.7 | 0.00 | 0.00 | 0.00 | 41 | 1011.1 |
| 20260507010039 | 25 | 299 | 11.3 | 22.5 | 0.00 | 0.00 | 0.00 | 39 | 1011.3 |
| 20260507004534 | 25 | 290 | 12.9 | 22.5 | 0.00 | 0.00 | 0.00 | 42 | 1010.9 |
| 20260507003035 | 24 | 221 | 4.8 | 8.0 | 0.00 | 0.00 | 0.00 | 64 | 1011.0 |
| 20260507001536 | 24 | 217 | 9.7 | 12.9 | 0.00 | 0.00 | 0.00 | 63 | 1010.6 |
| 20260507000034 | 24 | 223 | 6.4 | 16.1 | 0.00 | 0.00 | 0.00 | 61 | 1010.3 |
| 20260506234530 | 25 | 209 | 9.7 | 19.3 | 0.00 | 0.00 | 0.00 | 59 | 1010.3 |
| 20260506233031 | 25 | 208 | 12.9 | 22.5 | 0.00 | 0.00 | 0.00 | 54 | 1010.2 |
| 20260506231535 | 25 | 207 | 14.5 | 24.1 | 0.00 | 0.00 | 0.00 | 51 | 1010.3 |
| 20260506230033 | 26 | 206 | 16.1 | 27.4 | 0.00 | 0.00 | 0.00 | 50 | 1010.4 |
| 20260506224534 | 26 | 210 | 17.7 | 25.7 | 0.00 | 0.00 | 0.00 | 47 | 1010.7 |
| 20260506223031 | 25 | 232 | 16.1 | 25.7 | 0.00 | 0.00 | 0.00 | 49 | 1010.9 |
| 20260506221534 | 25 | 194 | 16.1 | 24.1 | 0.00 | 0.00 | 0.00 | 51 | 1011.2 |
| 20260506220032 | 25 | 205 | 16.1 | 27.4 | 0.00 | 0.00 | 0.00 | 55 | 1011.4 |
| 20260506214531 | 25 | 205 | 17.7 | 30.6 | 0.00 | 0.00 | 0.00 | 53 | 1011.3 |
| 20260506213037 | 25 | 215 | 17.7 | 33.8 | 0.00 | 0.00 | 0.00 | 54 | 1011.5 |
| 20260506211538 | 24 | 199 | 17.7 | 30.6 | 0.00 | 0.00 | 0.00 | 53 | 1011.7 |
| 20260506210034 | 24 | 213 | 17.7 | 33.8 | 0.00 | 0.00 | 0.00 | 56 | 1011.8 |
| 20260506204536 | 25 | 202 | 12.9 | 24.1 | 0.00 | 0.00 | 0.00 | 60 | 1011.8 |